createdAt,value
2018-02-27T00:00:45.665Z,81.19
2018-02-27T00:03:13.448Z,81.51
2018-02-27T00:05:41.221Z,81.34
2018-02-27T00:08:08.870Z,81.43
2018-02-27T00:10:36.681Z,81.78
2018-02-27T00:13:04.420Z,82.04
2018-02-27T00:15:32.141Z,82.34
2018-02-27T00:17:59.764Z,82.57
2018-02-27T00:20:27.467Z,82.48
2018-02-27T00:22:55.052Z,83.10
2018-02-27T00:25:22.938Z,82.70
2018-02-27T00:27:50.710Z,82.99
2018-02-27T00:30:18.489Z,83.22
2018-02-27T00:32:46.178Z,83.45
2018-02-27T00:35:13.942Z,83.60
2018-02-27T00:37:41.616Z,83.92
2018-02-27T00:40:09.450Z,84.23
2018-02-27T00:42:37.273Z,83.89
2018-02-27T00:45:05.008Z,83.91
2018-02-27T00:47:32.829Z,84.60
2018-02-27T00:50:00.608Z,84.36
2018-02-27T00:52:28.209Z,84.55
2018-02-27T00:54:55.853Z,84.79
2018-02-27T00:57:23.518Z,84.68
2018-02-27T00:59:51.276Z,84.73
2018-02-27T01:02:18.968Z,84.59
2018-02-27T01:04:46.599Z,84.48
2018-02-27T01:07:14.329Z,84.24
2018-02-27T01:09:41.937Z,84.68
2018-02-27T01:12:09.686Z,84.25
2018-02-27T01:14:37.468Z,84.02
2018-02-27T01:17:05.127Z,83.62
2018-02-27T01:19:32.803Z,83.71
2018-02-27T01:22:00.462Z,84.04
2018-02-27T01:24:28.268Z,84.04
2018-02-27T01:26:56.046Z,84.42
2018-02-27T01:29:23.933Z,85.24
2018-02-27T01:31:51.526Z,85.25
2018-02-27T01:34:19.232Z,84.94
2018-02-27T01:36:46.943Z,84.99
2018-02-27T01:39:14.626Z,85.02
2018-02-27T01:41:42.252Z,85.01
2018-02-27T01:44:09.971Z,85.22
2018-02-27T01:46:37.756Z,84.98
2018-02-27T01:49:05.541Z,85.27
2018-02-27T01:51:33.312Z,85.45
2018-02-27T01:54:00.980Z,85.63
2018-02-27T01:56:28.731Z,85.37
2018-02-27T01:58:56.432Z,85.45
2018-02-27T02:01:24.101Z,85.70
2018-02-27T02:03:51.779Z,85.73
2018-02-27T02:06:19.543Z,85.94
2018-02-27T02:08:47.124Z,86.03
2018-02-27T02:11:14.919Z,86.19
2018-02-27T02:13:42.594Z,86.74
2018-02-27T02:16:10.183Z,86.23
2018-02-27T02:18:37.826Z,86.32
2018-02-27T02:21:05.514Z,86.67
2018-02-27T02:23:33.295Z,86.43
2018-02-27T02:26:01.069Z,86.56
2018-02-27T02:28:28.816Z,86.88
2018-02-27T02:30:56.628Z,87.04
2018-02-27T02:33:24.308Z,87.04
2018-02-27T02:35:52.060Z,86.54
2018-02-27T02:38:19.860Z,85.97
2018-02-27T02:40:47.749Z,85.83
2018-02-27T02:43:15.621Z,85.97
2018-02-27T02:45:43.399Z,86.01
2018-02-27T02:48:11.177Z,86.11
2018-02-27T02:50:39.058Z,86.10
2018-02-27T02:53:06.653Z,85.81
2018-02-27T02:55:34.305Z,85.91
2018-02-27T02:58:02.071Z,85.36
2018-02-27T03:00:29.821Z,85.70
2018-02-27T03:02:57.640Z,86.09
2018-02-27T03:05:25.407Z,85.87
2018-02-27T03:07:53.196Z,85.75
2018-02-27T03:10:20.939Z,86.27
2018-02-27T03:12:48.749Z,86.71
2018-02-27T03:15:16.409Z,87.28
2018-02-27T03:17:44.088Z,87.38
2018-02-27T03:20:11.829Z,87.83
2018-02-27T03:22:39.438Z,88.52
2018-02-27T03:25:07.048Z,88.42
2018-02-27T03:27:34.694Z,88.88
2018-02-27T03:30:02.480Z,89.69
2018-02-27T03:32:30.254Z,89.60
2018-02-27T03:34:58.034Z,90.28
2018-02-27T03:37:25.711Z,91.75
2018-02-27T03:39:53.432Z,91.59
2018-02-27T03:42:21.046Z,91.08
2018-02-27T03:44:48.838Z,91.41
2018-02-27T03:47:16.619Z,91.66
2018-02-27T03:49:44.284Z,91.22
2018-02-27T03:52:12.017Z,91.53
2018-02-27T03:54:39.652Z,91.58
2018-02-27T03:57:07.420Z,91.75
2018-02-27T03:59:35.298Z,92.51
2018-02-27T04:02:02.958Z,92.01
2018-02-27T04:04:30.647Z,92.44
2018-02-27T04:06:58.321Z,92.87
2018-02-27T04:09:26.000Z,92.76
2018-02-27T04:11:53.880Z,92.78
2018-02-27T04:14:21.863Z,92.93
2018-02-27T04:16:49.522Z,93.03
2018-02-27T04:19:17.200Z,93.13
2018-02-27T04:21:44.886Z,93.39
2018-02-27T04:24:12.552Z,93.31
2018-02-27T04:26:40.235Z,93.28
2018-02-27T04:29:07.902Z,93.61
2018-02-27T04:31:35.687Z,93.96
2018-02-27T04:34:03.313Z,93.44
2018-02-27T04:36:31.110Z,93.68
2018-02-27T04:38:58.696Z,92.99
2018-02-27T04:41:26.276Z,92.94
2018-02-27T04:43:54.067Z,92.79
2018-02-27T04:46:21.741Z,92.63
2018-02-27T04:48:49.330Z,92.25
2018-02-27T04:51:17.231Z,92.02
2018-02-27T04:53:44.974Z,91.87
2018-02-27T04:56:12.660Z,91.27
2018-02-27T04:58:40.378Z,91.02
2018-02-27T05:01:08.101Z,90.35
2018-02-27T05:03:35.717Z,90.04
2018-02-27T05:06:03.404Z,89.78
2018-02-27T05:08:31.049Z,89.55
2018-02-27T05:10:58.701Z,89.28
2018-02-27T05:13:26.279Z,89.19
2018-02-27T05:15:54.056Z,89.13
2018-02-27T05:18:21.780Z,89.38
2018-02-27T05:20:49.608Z,89.68
2018-02-27T05:23:17.285Z,89.75
2018-02-27T05:25:44.882Z,89.84
2018-02-27T05:28:12.739Z,89.76
2018-02-27T05:30:40.462Z,89.52
2018-02-27T05:33:08.041Z,89.44
2018-02-27T05:35:35.757Z,89.26
2018-02-27T05:38:03.643Z,89.19
2018-02-27T05:40:31.312Z,89.10
2018-02-27T05:42:58.994Z,88.97
2018-02-27T05:45:26.658Z,88.85
2018-02-27T05:47:54.340Z,88.72
2018-02-27T05:50:22.016Z,88.66
2018-02-27T05:52:49.761Z,88.51
2018-02-27T05:55:17.576Z,88.64
2018-02-27T05:57:45.317Z,88.60
2018-02-27T06:00:13.026Z,88.57
2018-02-27T06:02:40.733Z,88.87
2018-02-27T06:05:08.317Z,89.21
2018-02-27T06:07:36.037Z,88.99
2018-02-27T06:10:03.732Z,88.82
2018-02-27T06:12:31.510Z,88.50
2018-02-27T06:14:59.280Z,88.13
2018-02-27T06:17:27.022Z,87.58
2018-02-27T06:19:54.842Z,87.32
2018-02-27T06:22:22.511Z,87.55
2018-02-27T06:24:50.247Z,87.16
2018-02-27T06:27:18.076Z,87.06
2018-02-27T06:29:45.855Z,86.08
2018-02-27T06:32:13.732Z,86.01
2018-02-27T06:34:41.511Z,85.92
2018-02-27T06:37:09.251Z,86.43
2018-02-27T06:39:36.943Z,86.06
2018-02-27T06:42:04.737Z,86.19
2018-02-27T06:44:32.476Z,86.52
2018-02-27T06:47:00.295Z,86.74
2018-02-27T06:49:28.070Z,86.51
2018-02-27T06:51:55.747Z,86.27
2018-02-27T06:54:24.023Z,86.29
2018-02-27T06:56:51.819Z,86.88
2018-02-27T06:59:19.478Z,87.11
2018-02-27T07:01:47.120Z,87.41
2018-02-27T07:04:14.826Z,87.40
2018-02-27T07:06:42.617Z,87.43
2018-02-27T07:09:10.295Z,87.42
2018-02-27T07:11:38.032Z,87.52
2018-02-27T07:14:05.742Z,87.59
2018-02-27T07:16:33.525Z,87.66
2018-02-27T07:19:01.353Z,87.62
2018-02-27T07:21:29.080Z,87.88
2018-02-27T07:23:56.748Z,87.90
2018-02-27T07:26:24.532Z,87.34
2018-02-27T07:28:52.307Z,87.27
2018-02-27T07:31:19.935Z,86.93
2018-02-27T07:33:47.546Z,86.89
2018-02-27T07:36:15.321Z,86.57
2018-02-27T07:38:43.009Z,86.61
2018-02-27T07:41:10.747Z,86.51
2018-02-27T07:43:38.567Z,86.48
2018-02-27T07:46:06.306Z,86.36
2018-02-27T07:48:34.120Z,86.28
2018-02-27T07:51:01.818Z,86.42
2018-02-27T07:53:29.414Z,86.64
2018-02-27T07:55:57.037Z,86.54
2018-02-27T07:58:24.694Z,86.52
2018-02-27T08:00:52.495Z,85.87
2018-02-27T08:03:20.221Z,86.21
2018-02-27T08:05:48.058Z,86.26
2018-02-27T08:08:15.827Z,86.10
2018-02-27T08:10:43.498Z,85.83
2018-02-27T08:13:11.285Z,85.49
2018-02-27T08:15:38.962Z,85.24
2018-02-27T08:18:06.603Z,84.69
2018-02-27T08:20:34.415Z,83.89
2018-02-27T08:23:02.077Z,82.93
2018-02-27T08:25:29.851Z,82.53
2018-02-27T08:27:57.608Z,81.72
2018-02-27T08:30:25.314Z,81.62
2018-02-27T08:32:52.997Z,80.97
2018-02-27T08:35:20.664Z,81.16
2018-02-27T08:37:48.447Z,79.70
2018-02-27T08:40:16.191Z,79.57
2018-02-27T08:42:43.886Z,78.27
2018-02-27T08:45:11.624Z,78.38
2018-02-27T08:47:39.241Z,78.39
2018-02-27T08:50:06.980Z,77.86
2018-02-27T08:52:34.803Z,77.25
2018-02-27T08:55:02.635Z,75.98
2018-02-27T08:57:30.464Z,75.99
2018-02-27T08:59:58.110Z,75.00
2018-02-27T09:02:25.706Z,75.01
2018-02-27T09:04:53.395Z,75.29
2018-02-27T09:07:21.265Z,74.95
2018-02-27T09:09:49.150Z,75.27
2018-02-27T09:12:16.924Z,74.70
2018-02-27T09:14:44.536Z,74.57
2018-02-27T09:17:12.169Z,74.55
2018-02-27T09:19:39.951Z,73.17
2018-02-27T09:22:07.728Z,73.60
2018-02-27T09:24:35.612Z,73.64
2018-02-27T09:27:03.391Z,74.44
2018-02-27T09:29:31.112Z,73.14
2018-02-27T09:31:58.826Z,72.68
2018-02-27T09:34:26.967Z,72.24
2018-02-27T09:36:54.599Z,72.42
2018-02-27T09:39:22.381Z,73.47
2018-02-27T09:41:49.966Z,73.53
2018-02-27T09:44:17.833Z,73.19
2018-02-27T09:46:45.552Z,73.11
2018-02-27T09:49:13.151Z,72.38
2018-02-27T09:51:40.957Z,72.08
2018-02-27T09:54:08.624Z,72.27
2018-02-27T09:56:36.310Z,72.60
2018-02-27T09:59:04.031Z,72.59
2018-02-27T10:01:31.751Z,71.86
2018-02-27T10:03:59.329Z,71.74
2018-02-27T10:06:27.010Z,71.10
2018-02-27T10:08:54.788Z,70.08
2018-02-27T10:11:22.461Z,70.56
2018-02-27T10:13:50.208Z,70.04
2018-02-27T10:16:17.793Z,70.08
2018-02-27T10:18:45.592Z,69.53
2018-02-27T10:21:13.265Z,70.68
2018-02-27T10:23:40.920Z,69.57
2018-02-27T10:26:08.618Z,70.25
2018-02-27T10:28:36.400Z,70.13
2018-02-27T10:31:04.119Z,69.53
2018-02-27T10:33:31.836Z,69.47
2018-02-27T10:35:59.474Z,70.61
2018-02-27T10:38:27.073Z,70.09
2018-02-27T10:40:54.717Z,69.14
2018-02-27T10:43:22.501Z,68.95
2018-02-27T10:45:50.083Z,69.25
2018-02-27T10:48:17.781Z,70.11
2018-02-27T10:50:45.578Z,71.73
2018-02-27T10:53:13.317Z,72.32
2018-02-27T10:55:41.030Z,70.81
2018-02-27T10:58:08.910Z,70.39
2018-02-27T11:00:42.165Z,67.95
2018-02-27T11:03:09.994Z,67.78
2018-02-27T11:05:37.726Z,67.22
2018-02-27T11:08:05.343Z,66.90
2018-02-27T11:10:33.125Z,67.29
2018-02-27T11:13:00.798Z,66.97
2018-02-27T11:15:28.583Z,66.75
2018-02-27T11:17:56.213Z,66.19
2018-02-27T11:20:23.862Z,65.58
2018-02-27T11:22:51.483Z,65.86
2018-02-27T11:25:19.284Z,65.21
2018-02-27T11:27:47.016Z,65.65
2018-02-27T11:30:14.836Z,65.82
2018-02-27T11:32:42.613Z,66.18
2018-02-27T11:35:10.283Z,66.31
2018-02-27T11:37:37.969Z,66.19
2018-02-27T11:40:05.740Z,65.06
2018-02-27T11:42:33.415Z,63.99
2018-02-27T11:45:01.284Z,64.16
2018-02-27T11:47:28.967Z,63.70
2018-02-27T11:49:56.641Z,61.79
2018-02-27T11:52:24.319Z,61.67
2018-02-27T11:54:52.097Z,61.89
2018-02-27T11:57:19.770Z,62.23
2018-02-27T11:59:47.400Z,61.62
2018-02-27T12:02:15.005Z,60.96
2018-02-27T12:04:42.799Z,61.16
2018-02-27T12:07:10.463Z,61.09
2018-02-27T12:09:38.252Z,61.92
2018-02-27T12:12:05.933Z,62.31
2018-02-27T12:14:34.521Z,62.54
2018-02-27T12:17:02.302Z,61.43
2018-02-27T12:19:30.081Z,61.21
2018-02-27T12:21:57.829Z,60.69
2018-02-27T12:24:25.594Z,60.17
2018-02-27T12:26:53.304Z,61.04
2018-02-27T12:29:20.969Z,61.11
2018-02-27T12:31:48.666Z,62.38
2018-02-27T12:34:16.406Z,63.96
2018-02-27T12:36:44.116Z,63.62
2018-02-27T12:39:11.894Z,64.04
2018-02-27T12:41:39.776Z,63.25
2018-02-27T12:44:07.497Z,63.79
2018-02-27T12:46:35.122Z,63.19
2018-02-27T12:49:02.798Z,62.79
2018-02-27T12:51:30.683Z,63.17
2018-02-27T12:53:58.355Z,61.48
2018-02-27T12:56:26.132Z,61.50
2018-02-27T12:58:53.907Z,60.47
2018-02-27T13:01:21.500Z,59.15
2018-02-27T13:03:49.262Z,58.67
2018-02-27T13:06:16.917Z,57.81
2018-02-27T13:08:44.493Z,57.71
2018-02-27T13:11:12.088Z,66.05
2018-02-27T13:13:39.846Z,68.63
2018-02-27T13:16:07.685Z,73.38
2018-02-27T13:18:35.317Z,78.92
2018-02-27T13:21:03.094Z,81.09
2018-02-27T13:23:30.865Z,79.97
2018-02-27T13:25:58.647Z,80.13
2018-02-27T13:28:26.392Z,80.66
2018-02-27T13:30:54.091Z,80.00
2018-02-27T13:33:21.822Z,79.46
2018-02-27T13:35:49.457Z,79.59
2018-02-27T13:38:17.277Z,78.81
2018-02-27T13:40:44.892Z,77.30
2018-02-27T13:43:12.681Z,81.06
2018-02-27T13:45:40.461Z,81.65
2018-02-27T13:48:08.198Z,78.83
2018-02-27T13:50:35.911Z,79.01
2018-02-27T13:53:03.584Z,75.13
2018-02-27T13:55:31.320Z,76.52
2018-02-27T13:57:59.159Z,75.01
2018-02-27T14:00:26.824Z,74.26
2018-02-27T14:02:54.482Z,73.74
2018-02-27T14:05:22.068Z,74.38
2018-02-27T14:07:49.943Z,67.93
2018-02-27T14:10:17.721Z,66.85
2018-02-27T14:12:45.391Z,67.99
2018-02-27T14:15:13.063Z,70.61
2018-02-27T14:17:40.855Z,73.43
2018-02-27T14:20:08.516Z,75.21
2018-02-27T14:22:36.121Z,75.75
2018-02-27T14:25:03.778Z,76.59
2018-02-27T14:27:31.661Z,75.37
2018-02-27T14:29:59.398Z,76.26
2018-02-27T14:32:27.248Z,76.64
2018-02-27T14:34:54.893Z,79.92
2018-02-27T14:37:22.623Z,84.28
2018-02-27T14:39:50.387Z,88.07
2018-02-27T14:42:18.114Z,92.24
2018-02-27T14:44:45.902Z,93.10
2018-02-27T14:47:13.636Z,92.28
2018-02-27T14:49:41.497Z,90.09
2018-02-27T14:52:09.094Z,88.55
2018-02-27T14:54:36.903Z,89.00
2018-02-27T14:57:04.600Z,86.57
2018-02-27T14:59:32.201Z,84.94
2018-02-27T15:02:00.035Z,84.34
2018-02-27T15:04:27.695Z,84.25
2018-02-27T15:06:55.274Z,83.20
2018-02-27T15:09:22.964Z,82.74
2018-02-27T15:11:50.798Z,82.46
2018-02-27T15:14:18.613Z,82.67
2018-02-27T15:16:46.389Z,83.01
2018-02-27T15:19:14.168Z,82.85
2018-02-27T15:21:41.952Z,83.40
2018-02-27T15:24:09.542Z,83.39
2018-02-27T15:26:37.163Z,83.26
2018-02-27T15:29:04.977Z,82.47
2018-02-27T15:31:32.560Z,81.46
2018-02-27T15:34:00.225Z,82.37
2018-02-27T15:36:27.878Z,84.31
2018-02-27T15:38:55.575Z,86.63
2018-02-27T15:41:23.251Z,88.25
2018-02-27T15:43:51.025Z,90.89
2018-02-27T15:46:18.877Z,91.24
2018-02-27T15:48:46.683Z,92.47
2018-02-27T15:51:14.462Z,93.26
2018-02-27T15:53:42.235Z,94.02
2018-02-27T15:56:10.017Z,94.35
2018-02-27T15:58:37.594Z,93.41
2018-02-27T16:01:05.237Z,93.04
2018-02-27T16:03:33.043Z,92.56
2018-02-27T16:06:00.701Z,92.04
2018-02-27T16:08:28.451Z,92.25
2018-02-27T16:10:56.171Z,92.35
2018-02-27T16:13:24.251Z,92.94
2018-02-27T16:15:52.089Z,93.31
2018-02-27T16:18:19.887Z,93.39
2018-02-27T16:20:47.584Z,92.92
2018-02-27T16:23:15.325Z,92.96
2018-02-27T16:25:43.159Z,93.58
2018-02-27T16:28:10.824Z,93.42
2018-02-27T16:30:38.606Z,93.26
2018-02-27T16:33:06.283Z,93.11
2018-02-27T16:35:33.946Z,93.32
2018-02-27T16:38:01.734Z,92.74
2018-02-27T16:40:29.615Z,92.65
2018-02-27T16:42:57.454Z,92.79
2018-02-27T16:45:25.067Z,93.04
2018-02-27T16:47:52.842Z,93.19
2018-02-27T16:50:20.676Z,92.59
2018-02-27T16:52:51.141Z,93.04
2018-02-27T16:55:18.757Z,93.09
2018-02-27T16:57:46.399Z,93.48
2018-02-27T17:00:14.178Z,93.44
2018-02-27T17:02:41.968Z,93.77
2018-02-27T17:05:09.744Z,93.79
2018-02-27T17:07:37.405Z,94.26
2018-02-27T17:10:05.066Z,94.43
2018-02-27T17:12:32.795Z,96.05
2018-02-27T17:15:00.518Z,94.70
2018-02-27T17:17:28.397Z,95.05
2018-02-27T17:19:56.309Z,94.43
2018-02-27T17:22:23.970Z,95.28
2018-02-27T17:24:51.757Z,94.96
2018-02-27T17:27:19.527Z,95.33
2018-02-27T17:29:47.211Z,95.46
2018-02-27T17:32:14.888Z,96.59
2018-02-27T17:34:42.766Z,96.20
2018-02-27T17:37:10.441Z,97.14
2018-02-27T17:39:38.221Z,97.37
2018-02-27T17:42:06.108Z,96.95
2018-02-27T17:44:33.706Z,97.45
2018-02-27T17:47:01.528Z,96.91
2018-02-27T17:49:29.121Z,96.76
2018-02-27T17:51:56.766Z,96.75
2018-02-27T17:54:25.020Z,96.42
2018-02-27T17:56:52.664Z,97.54
2018-02-27T17:59:20.549Z,96.36
2018-02-27T18:01:48.212Z,96.50
2018-02-27T18:04:15.896Z,96.52
2018-02-27T18:06:43.679Z,96.20
2018-02-27T18:09:11.457Z,96.02
2018-02-27T18:11:39.130Z,96.25
2018-02-27T18:14:06.900Z,96.36
2018-02-27T18:16:34.571Z,96.34
2018-02-27T18:19:02.358Z,95.71
2018-02-27T18:21:30.097Z,96.04
2018-02-27T18:23:57.816Z,96.40
2018-02-27T18:26:25.694Z,96.34
2018-02-27T18:28:53.366Z,96.29
2018-02-27T18:31:21.148Z,95.34
2018-02-27T18:33:48.802Z,95.92
2018-02-27T18:36:16.605Z,95.96
2018-02-27T18:38:44.584Z,95.55
2018-02-27T18:41:12.226Z,96.80
2018-02-27T18:43:40.040Z,96.52
2018-02-27T18:46:07.710Z,96.98
2018-02-27T18:48:35.597Z,95.86
2018-02-27T18:51:03.186Z,95.36
2018-02-27T18:53:30.783Z,95.04
2018-02-27T18:55:59.232Z,95.63
2018-02-27T18:58:27.531Z,95.03
2018-02-27T19:00:55.405Z,94.65
2018-02-27T19:03:23.157Z,94.64
2018-02-27T19:05:50.963Z,94.50
2018-02-27T19:08:18.843Z,94.48
2018-02-27T19:10:46.614Z,93.76
2018-02-27T19:13:14.389Z,93.12
2018-02-27T19:15:42.052Z,93.62
2018-02-27T19:18:09.845Z,93.77
2018-02-27T19:20:37.725Z,94.18
2018-02-27T19:23:05.405Z,92.93
2018-02-27T19:25:33.498Z,92.85
2018-02-27T19:28:01.159Z,92.75
2018-02-27T19:30:28.837Z,92.80
2018-02-27T19:32:56.693Z,92.85
2018-02-27T19:35:24.471Z,92.91
2018-02-27T19:37:53.764Z,92.93
2018-02-27T19:40:21.921Z,92.98
2018-02-27T19:42:49.775Z,93.26
2018-02-27T19:45:17.398Z,93.37
2018-02-27T19:47:45.017Z,93.34
2018-02-27T19:50:12.904Z,93.73
2018-02-27T19:52:40.682Z,93.44
2018-02-27T19:55:08.354Z,93.76
2018-02-27T19:57:36.017Z,93.90
2018-02-27T20:00:03.707Z,93.97
2018-02-27T20:02:31.327Z,93.89
2018-02-27T20:04:58.979Z,94.15
2018-02-27T20:07:26.635Z,94.29
2018-02-27T20:09:54.368Z,93.96
2018-02-27T20:12:22.085Z,94.28
2018-02-27T20:14:49.805Z,94.26
2018-02-27T20:17:17.436Z,94.24
2018-02-27T20:19:45.086Z,94.53
2018-02-27T20:22:12.888Z,94.58
2018-02-27T20:24:40.473Z,94.95
2018-02-27T20:27:08.346Z,94.88
2018-02-27T20:29:36.226Z,94.76
2018-02-27T20:32:03.972Z,94.70
2018-02-27T20:34:33.376Z,94.61
2018-02-27T20:37:00.989Z,94.99
2018-02-27T20:39:28.772Z,95.04
2018-02-27T20:41:56.650Z,95.21
2018-02-27T20:44:24.259Z,95.13
2018-02-27T20:46:51.886Z,94.91
2018-02-27T20:49:19.537Z,94.95
2018-02-27T20:51:47.240Z,95.03
2018-02-27T20:54:14.840Z,94.95
2018-02-27T20:56:42.490Z,94.93
2018-02-27T20:59:10.172Z,94.88
2018-02-27T21:01:38.056Z,94.79
2018-02-27T21:04:05.728Z,94.73
2018-02-27T21:06:33.465Z,94.71
2018-02-27T21:09:01.492Z,94.67
2018-02-27T21:11:29.272Z,94.24
2018-02-27T21:13:57.258Z,94.37
2018-02-27T21:16:24.981Z,94.29
2018-02-27T21:18:52.720Z,94.12
2018-02-27T21:21:20.372Z,94.19
2018-02-27T21:23:48.157Z,94.17
2018-02-27T21:26:16.224Z,93.75
2018-02-27T21:28:44.826Z,93.89
2018-02-27T21:31:12.721Z,93.82
2018-02-27T21:33:40.496Z,93.77
2018-02-27T21:36:08.164Z,93.66
2018-02-27T21:38:36.077Z,93.76
2018-02-27T21:41:04.080Z,93.82
2018-02-27T21:43:31.713Z,93.70
2018-02-27T21:45:59.457Z,94.03
2018-02-27T21:48:27.171Z,93.80
2018-02-27T21:50:54.844Z,93.79
2018-02-27T21:53:22.425Z,93.66
2018-02-27T21:55:50.177Z,93.76
2018-02-27T21:58:17.935Z,93.74
2018-02-27T22:00:45.513Z,93.53
2018-02-27T22:03:13.517Z,93.34
2018-02-27T22:05:42.121Z,93.42
2018-02-27T22:08:09.784Z,93.26
2018-02-27T22:10:37.578Z,93.29
2018-02-27T22:13:05.306Z,93.17
2018-02-27T22:15:33.034Z,92.94
2018-02-27T22:18:00.810Z,92.45
2018-02-27T22:20:29.610Z,92.37
2018-02-27T22:22:57.387Z,92.54
2018-02-27T22:25:25.868Z,92.80
2018-02-27T22:27:53.520Z,92.68
2018-02-27T22:30:21.334Z,92.87
2018-02-27T22:32:49.214Z,92.61
2018-02-27T22:35:16.996Z,92.67
2018-02-27T22:37:44.743Z,92.48
2018-02-27T22:40:12.429Z,92.51
2018-02-27T22:42:40.495Z,92.15
2018-02-27T22:45:08.411Z,91.96
2018-02-27T22:47:36.004Z,91.72
2018-02-27T22:50:03.722Z,91.57
2018-02-27T22:52:31.540Z,91.59
2018-02-27T22:54:59.293Z,91.47
2018-02-27T22:57:26.893Z,91.32
2018-02-27T22:59:54.735Z,91.47
2018-02-27T23:02:22.434Z,91.42
2018-02-27T23:04:50.224Z,91.31
2018-02-27T23:07:17.898Z,91.10
2018-02-27T23:09:45.876Z,91.33
2018-02-27T23:12:13.663Z,91.37
2018-02-27T23:14:41.441Z,91.34
2018-02-27T23:17:09.939Z,91.49
2018-02-27T23:19:37.715Z,91.74
2018-02-27T23:22:05.315Z,91.82
2018-02-27T23:24:49.289Z,92.07
2018-02-27T23:27:19.379Z,92.44
2018-02-27T23:29:48.139Z,92.50
2018-02-27T23:32:16.980Z,92.47
2018-02-27T23:34:51.053Z,92.68
2018-02-27T23:37:18.641Z,92.75
2018-02-27T23:39:46.361Z,92.81
2018-02-27T23:42:14.085Z,92.79
2018-02-27T23:44:41.822Z,92.90
2018-02-27T23:47:09.704Z,92.64
2018-02-27T23:49:37.364Z,92.35
2018-02-27T23:52:05.145Z,92.38
2018-02-27T23:54:33.126Z,92.57
2018-02-27T23:57:00.859Z,92.36
2018-02-27T23:59:28.685Z,92.02
